Hovedside
METAR-TAF:

METAR-TAF

Lufthavner :

Sindal, Danmark

breddegrad: 57-30N, lengdegrad: 010-13E, høyde over havet: 28 m

Gjeldene værobservasjon

Denne rapporten ble laget for 17 timer og 20 minutter siden, klokken 12:50 UTC
Vind 14 kt fra Øst-sørøst
Temperatur 5°C
Luftfuktighet 93%
Trykk 982 hPa
Sikt: 9000 m
Spredte skyer i en høyde av 600 ft
Brutte skyer i en høyde av 1700 ft

METAR: EKSN 281250Z 12014KT 9000 SCT006 BKN017 05/04 Q0982

Tid: 07:10 (06:10 UTC)

Varsel

Denne rapporten ble laget for 20 timer og 22 minutter siden, klokken 09:48 UTC
Varsel gyldig fra 28. klokken 09 UTC til 28. klokken 14 UTC
Vind 15 kt fra Sørøst
Sikt: 7000 m
Spredte skyer i en høyde av 800 ft
Brutte skyer i en høyde av 1500 ft
Midlertidig
fra 28. klokken 09 UTC til 28. klokken 14 UTC
Sikt: 4000 m
Brutte skyer i en høyde av 800 ft
dis

TAF: EKSN 280948Z 2809/2814 14015KT 7000 SCT008 BKN015 TEMPO 2809/2814 4000 BR BKN008

Værobservasjoner og værvarsel for over 4000 flyplasser (METAR- og TAF-rapporter).

Tilgjengelige stasjoner er representert av de røde og gule prikkene på kartet.

Hold musepekeren over prikken for å se navnet på stasjonen.

Klikk så for å se værobservasjoner og -varsler.

For å forandre kartet kan du klikke på den grønne knappen med svart kryss for å zoome inn, på den grønne knappen med strek for å zoome ut, eller på de grønne pilene for å se tilstøtende kart.


METAR-TAF: